sensor_id;sensor_type;location;lat;lon;timestamp;pressure;altitude;pressure_sealevel;temperature;humidity
36692;BME280;22678;52.052;4.242;2022-12-07T00:00:27;101957.06;;;5.42;97.07
36692;BME280;22678;52.052;4.242;2022-12-07T00:02:52;101959.63;;;5.41;97.04
36692;BME280;22678;52.052;4.242;2022-12-07T00:05:17;101980.63;;;5.46;96.85
36692;BME280;22678;52.052;4.242;2022-12-07T00:07:42;101963.75;;;5.34;96.39
36692;BME280;22678;52.052;4.242;2022-12-07T00:10:08;101975.84;;;5.32;96.57
36692;BME280;22678;52.052;4.242;2022-12-07T00:12:33;101968.81;;;5.30;96.60
36692;BME280;22678;52.052;4.242;2022-12-07T00:14:58;101985.41;;;5.32;96.42
36692;BME280;22678;52.052;4.242;2022-12-07T00:17:24;101964.28;;;5.24;96.38
36692;BME280;22678;52.052;4.242;2022-12-07T00:19:49;101965.16;;;5.23;96.47
36692;BME280;22678;52.052;4.242;2022-12-07T00:22:14;101953.72;;;5.19;96.25
36692;BME280;22678;52.052;4.242;2022-12-07T00:24:40;101956.47;;;5.24;96.72
36692;BME280;22678;52.052;4.242;2022-12-07T00:27:05;101966.91;;;5.24;96.56
36692;BME280;22678;52.052;4.242;2022-12-07T00:29:30;101959.84;;;5.20;96.41
36692;BME280;22678;52.052;4.242;2022-12-07T00:31:55;101963.28;;;5.19;96.48
36692;BME280;22678;52.052;4.242;2022-12-07T00:34:21;101958.94;;;5.19;96.46
36692;BME280;22678;52.052;4.242;2022-12-07T00:36:48;101954.53;;;5.17;96.18
36692;BME280;22678;52.052;4.242;2022-12-07T00:39:14;101956.28;;;5.18;96.23
36692;BME280;22678;52.052;4.242;2022-12-07T00:41:39;101963.28;;;5.19;96.37
36692;BME280;22678;52.052;4.242;2022-12-07T00:44:04;101949.09;;;5.11;96.24
36692;BME280;22678;52.052;4.242;2022-12-07T00:46:30;101951.78;;;5.14;96.20
36692;BME280;22678;52.052;4.242;2022-12-07T00:48:55;101956.09;;;5.12;96.24
36692;BME280;22678;52.052;4.242;2022-12-07T00:51:23;101957.88;;;5.13;95.89
36692;BME280;22678;52.052;4.242;2022-12-07T00:53:49;101945.66;;;5.12;95.95
36692;BME280;22678;52.052;4.242;2022-12-07T00:56:17;101953.47;;;5.12;95.87
36692;BME280;22678;52.052;4.242;2022-12-07T00:58:43;101945.47;;;5.05;95.89
36692;BME280;22678;52.052;4.242;2022-12-07T01:01:10;101952.66;;;5.13;96.00
36692;BME280;22678;52.052;4.242;2022-12-07T01:03:36;101953.56;;;5.15;96.08
36692;BME280;22678;52.052;4.242;2022-12-07T01:06:01;101949.19;;;5.14;96.08
36692;BME280;22678;52.052;4.242;2022-12-07T01:08:28;101951.16;;;5.21;95.92
36692;BME280;22678;52.052;4.242;2022-12-07T01:11:14;101957.28;;;5.21;95.67
36692;BME280;22678;52.052;4.242;2022-12-07T01:13:41;101956.47;;;5.24;95.92
36692;BME280;22678;52.052;4.242;2022-12-07T01:16:07;101933.53;;;5.14;95.80
36692;BME280;22678;52.052;4.242;2022-12-07T01:18:35;101945.16;;;5.23;95.67
36692;BME280;22678;52.052;4.242;2022-12-07T01:21:04;101946.97;;;5.26;95.67
36692;BME280;22678;52.052;4.242;2022-12-07T01:23:31;101940.72;;;5.21;95.59
36692;BME280;22678;52.052;4.242;2022-12-07T01:25:58;101955.63;;;5.25;95.66
36692;BME280;22678;52.052;4.242;2022-12-07T01:28:24;101949.69;;;5.29;95.45
36692;BME280;22678;52.052;4.242;2022-12-07T01:33:31;101954.06;;;5.30;95.46
36692;BME280;22678;52.052;4.242;2022-12-07T01:36:33;101941.13;;;5.33;95.26
36692;BME280;22678;52.052;4.242;2022-12-07T01:39:06;101939.34;;;5.32;95.27
36692;BME280;22678;52.052;4.242;2022-12-07T01:41:36;101939.34;;;5.32;95.26
36692;BME280;22678;52.052;4.242;2022-12-07T01:44:15;101956.25;;;5.45;95.31
36692;BME280;22678;52.052;4.242;2022-12-07T01:46:44;101950.22;;;5.48;95.45
36692;BME280;22678;52.052;4.242;2022-12-07T01:49:15;101946.78;;;5.49;95.30
36692;BME280;22678;52.052;4.242;2022-12-07T01:51:43;101955.44;;;5.48;95.15
36692;BME280;22678;52.052;4.242;2022-12-07T01:54:11;101941.31;;;5.39;94.74
36692;BME280;22678;52.052;4.242;2022-12-07T01:56:38;101935.91;;;5.33;94.68
36692;BME280;22678;52.052;4.242;2022-12-07T01:59:05;101944.75;;;5.38;94.80
36692;BME280;22678;52.052;4.242;2022-12-07T02:01:30;101932.16;;;5.25;94.55
36692;BME280;22678;52.052;4.242;2022-12-07T02:03:56;101948.09;;;5.34;94.57
36692;BME280;22678;52.052;4.242;2022-12-07T02:06:24;101948.00;;;5.31;94.53
36692;BME280;22678;52.052;4.242;2022-12-07T02:08:50;101922.28;;;5.15;94.59
36692;BME280;22678;52.052;4.242;2022-12-07T02:11:16;101940.81;;;5.24;94.43
36692;BME280;22678;52.052;4.242;2022-12-07T02:13:43;101938.16;;;5.22;94.55
36692;BME280;22678;52.052;4.242;2022-12-07T02:16:41;101944.31;;;5.24;94.38
36692;BME280;22678;52.052;4.242;2022-12-07T02:30:19;101921.25;;;5.09;94.29
36692;BME280;22678;52.052;4.242;2022-12-07T02:33:00;101937.72;;;5.08;94.07
36692;BME280;22678;52.052;4.242;2022-12-07T02:38:19;101929.81;;;5.05;94.14
36692;BME280;22678;52.052;4.242;2022-12-07T02:40:55;101927.16;;;5.04;94.06
36692;BME280;22678;52.052;4.242;2022-12-07T02:43:28;101913.03;;;4.97;94.06
36692;BME280;22678;52.052;4.242;2022-12-07T02:45:59;101931.69;;;5.09;94.24
36692;BME280;22678;52.052;4.242;2022-12-07T02:48:45;101931.97;;;5.19;94.36
36692;BME280;22678;52.052;4.242;2022-12-07T02:51:11;101921.34;;;5.13;94.28
36692;BME280;22678;52.052;4.242;2022-12-07T02:53:40;101935.56;;;5.22;94.32
36692;BME280;22678;52.052;4.242;2022-12-07T03:02:00;101923.97;;;5.13;93.71
36692;BME280;22678;52.052;4.242;2022-12-07T03:07:45;101937.09;;;5.16;93.71
36692;BME280;22678;52.052;4.242;2022-12-07T03:10:22;101938.75;;;5.14;93.58
36692;BME280;22678;52.052;4.242;2022-12-07T03:18:07;101920.25;;;5.06;93.75
36692;BME280;22678;52.052;4.242;2022-12-07T03:20:35;101925.53;;;5.07;93.59
36692;BME280;22678;52.052;4.242;2022-12-07T03:23:04;101918.56;;;5.06;93.83
36692;BME280;22678;52.052;4.242;2022-12-07T03:25:32;101924.00;;;5.14;93.59
36692;BME280;22678;52.052;4.242;2022-12-07T03:28:02;101898.63;;;5.08;93.92
36692;BME280;22678;52.052;4.242;2022-12-07T03:30:39;101909.34;;;5.18;93.86
36692;BME280;22678;52.052;4.242;2022-12-07T03:33:19;101909.44;;;5.21;94.12
36692;BME280;22678;52.052;4.242;2022-12-07T03:35:51;101922.69;;;5.27;93.88
36692;BME280;22678;52.052;4.242;2022-12-07T03:38:37;101911.28;;;5.25;93.77
36692;BME280;22678;52.052;4.242;2022-12-07T03:41:11;101911.28;;;5.25;93.88
36692;BME280;22678;52.052;4.242;2022-12-07T03:43:37;101914.84;;;5.27;93.93
36692;BME280;22678;52.052;4.242;2022-12-07T03:46:39;101907.81;;;5.24;93.86
36692;BME280;22678;52.052;4.242;2022-12-07T03:52:27;101908.81;;;5.30;94.10
36692;BME280;22678;52.052;4.242;2022-12-07T03:55:06;101906.06;;;5.25;93.86
36692;BME280;22678;52.052;4.242;2022-12-07T03:57:34;101902.56;;;5.23;93.92
36692;BME280;22678;52.052;4.242;2022-12-07T04:00:04;101911.38;;;5.28;93.86
36692;BME280;22678;52.052;4.242;2022-12-07T04:02:31;101901.66;;;5.22;93.72
36692;BME280;22678;52.052;4.242;2022-12-07T04:04:58;101890.06;;;5.13;93.78
36692;BME280;22678;52.052;4.242;2022-12-07T04:07:23;101912.06;;;5.22;93.53
36692;BME280;22678;52.052;4.242;2022-12-07T04:09:48;101876.84;;;5.06;93.60
36692;BME280;22678;52.052;4.242;2022-12-07T04:12:14;101900.59;;;5.16;93.41
36692;BME280;22678;52.052;4.242;2022-12-07T04:14:39;101904.03;;;5.15;93.29
36692;BME280;22678;52.052;4.242;2022-12-07T04:17:05;101906.69;;;5.16;93.35
36692;BME280;22678;52.052;4.242;2022-12-07T04:19:32;101896.94;;;5.11;93.31
36692;BME280;22678;52.052;4.242;2022-12-07T04:21:59;101877.69;;;5.05;93.21
36692;BME280;22678;52.052;4.242;2022-12-07T04:24:25;101884.75;;;5.09;93.09
36692;BME280;22678;52.052;4.242;2022-12-07T04:26:50;101876.78;;;5.05;93.02
36692;BME280;22678;52.052;4.242;2022-12-07T04:29:17;101900.59;;;5.16;93.04
36692;BME280;22678;52.052;4.242;2022-12-07T04:31:43;101894.34;;;5.11;92.87
36692;BME280;22678;52.052;4.242;2022-12-07T04:34:09;101892.59;;;5.09;92.61
36692;BME280;22678;52.052;4.242;2022-12-07T04:36:35;101878.63;;;5.09;92.46
36692;BME280;22678;52.052;4.242;2022-12-07T04:39:03;101888.28;;;5.12;92.55
36692;BME280;22678;52.052;4.242;2022-12-07T04:41:30;101872.47;;;5.05;92.41
36692;BME280;22678;52.052;4.242;2022-12-07T04:43:57;101877.75;;;5.08;92.34
36692;BME280;22678;52.052;4.242;2022-12-07T04:46:23;101867.06;;;4.99;91.99
36692;BME280;22678;52.052;4.242;2022-12-07T04:48:50;101870.59;;;5.01;92.03
36692;BME280;22678;52.052;4.242;2022-12-07T04:51:19;101875.75;;;5.00;92.08
36692;BME280;22678;52.052;4.242;2022-12-07T04:53:45;101878.53;;;5.06;91.83
36692;BME280;22678;52.052;4.242;2022-12-07T04:56:10;101860.06;;;4.98;92.05
36692;BME280;22678;52.052;4.242;2022-12-07T04:58:35;101863.59;;;5.00;91.67
36692;BME280;22678;52.052;4.242;2022-12-07T05:01:01;101876.09;;;5.11;91.75
36692;BME280;22678;52.052;4.242;2022-12-07T05:03:26;101861.19;;;5.06;91.75
36692;BME280;22678;52.052;4.242;2022-12-07T05:05:51;101876.09;;;5.11;91.78
36692;BME280;22678;52.052;4.242;2022-12-07T05:08:17;101869.22;;;5.13;91.74
36692;BME280;22678;52.052;4.242;2022-12-07T05:10:42;101856.91;;;5.08;91.48
36692;BME280;22678;52.052;4.242;2022-12-07T05:13:07;101857.78;;;5.09;91.47
36692;BME280;22678;52.052;4.242;2022-12-07T05:15:32;101844.69;;;5.07;91.53
36692;BME280;22678;52.052;4.242;2022-12-07T05:17:58;101863.19;;;5.15;91.20
36692;BME280;22678;52.052;4.242;2022-12-07T05:20:23;101857.81;;;5.11;91.40
36692;BME280;22678;52.052;4.242;2022-12-07T05:22:49;101863.09;;;5.12;91.19
36692;BME280;22678;52.052;4.242;2022-12-07T05:25:14;101862.31;;;5.15;91.32
36692;BME280;22678;52.052;4.242;2022-12-07T05:27:39;101864.09;;;5.16;90.96
36692;BME280;22678;52.052;4.242;2022-12-07T05:30:05;101849.19;;;5.12;90.96
36692;BME280;22678;52.052;4.242;2022-12-07T05:32:31;101865.03;;;5.19;90.71
36692;BME280;22678;52.052;4.242;2022-12-07T05:34:56;101869.47;;;5.22;90.58
36692;BME280;22678;52.052;4.242;2022-12-07T05:37:21;101870.56;;;5.29;90.17
36692;BME280;22678;52.052;4.242;2022-12-07T05:39:47;101867.00;;;5.26;89.92
36692;BME280;22678;52.052;4.242;2022-12-07T05:42:12;101860.91;;;5.26;89.83
36692;BME280;22678;52.052;4.242;2022-12-07T05:44:45;101885.47;;;5.34;89.65
36692;BME280;22678;52.052;4.242;2022-12-07T05:47:12;101864.44;;;5.28;89.32
36692;BME280;22678;52.052;4.242;2022-12-07T05:49:38;101872.41;;;5.33;89.51
36692;BME280;22678;52.052;4.242;2022-12-07T05:52:05;101870.75;;;5.35;89.67
36692;BME280;22678;52.052;4.242;2022-12-07T05:54:30;101857.47;;;5.27;89.40
36692;BME280;22678;52.052;4.242;2022-12-07T05:56:55;101830.78;;;5.07;89.25
36692;BME280;22678;52.052;4.242;2022-12-07T05:59:21;101862.56;;;5.24;89.44
36692;BME280;22678;52.052;4.242;2022-12-07T06:02:00;101858.13;;;5.20;89.51
36692;BME280;22678;52.052;4.242;2022-12-07T06:04:30;101867.69;;;5.21;89.56
36692;BME280;22678;52.052;4.242;2022-12-07T06:06:55;101857.19;;;5.18;89.69
36692;BME280;22678;52.052;4.242;2022-12-07T06:09:24;101869.56;;;5.25;89.80
36692;BME280;22678;52.052;4.242;2022-12-07T06:11:50;101870.34;;;5.22;89.70
36692;BME280;22678;52.052;4.242;2022-12-07T06:14:35;101865.75;;;5.14;89.74
36692;BME280;22678;52.052;4.242;2022-12-07T06:17:00;101876.28;;;5.17;89.58
36692;BME280;22678;52.052;4.242;2022-12-07T06:19:26;101859.44;;;5.05;89.44
36692;BME280;22678;52.052;4.242;2022-12-07T06:21:51;101876.09;;;5.11;89.41
36692;BME280;22678;52.052;4.242;2022-12-07T06:24:17;101866.28;;;5.03;89.48
36692;BME280;22678;52.052;4.242;2022-12-07T06:26:43;101860.06;;;4.98;89.40
36692;BME280;22678;52.052;4.242;2022-12-07T06:29:09;101877.75;;;5.08;89.53
36692;BME280;22678;52.052;4.242;2022-12-07T06:31:36;101877.81;;;5.10;89.49
36692;BME280;22678;52.052;4.242;2022-12-07T06:34:04;101875.25;;;5.12;89.55
36692;BME280;22678;52.052;4.242;2022-12-07T06:36:30;101867.06;;;4.99;89.26
36692;BME280;22678;52.052;4.242;2022-12-07T06:38:55;101879.53;;;5.09;89.40
36692;BME280;22678;52.052;4.242;2022-12-07T06:41:21;101861.75;;;4.96;89.22
36692;BME280;22678;52.052;4.242;2022-12-07T06:43:47;101884.53;;;5.03;89.32
36692;BME280;22678;52.052;4.242;2022-12-07T06:46:13;101873.25;;;5.03;89.08
36692;BME280;22678;52.052;4.242;2022-12-07T06:48:39;101880.38;;;5.08;89.67
36692;BME280;22678;52.052;4.242;2022-12-07T06:51:04;101867.25;;;5.05;89.43
36692;BME280;22678;52.052;4.242;2022-12-07T06:53:30;101875.13;;;5.07;89.39
36692;BME280;22678;52.052;4.242;2022-12-07T06:55:55;101874.28;;;5.08;89.52
36692;BME280;22678;52.052;4.242;2022-12-07T06:58:20;101861.19;;;5.06;89.50
36692;BME280;22678;52.052;4.242;2022-12-07T07:00:48;101874.44;;;5.13;89.20
36692;BME280;22678;52.052;4.242;2022-12-07T07:03:13;101863.81;;;5.06;89.21
36692;BME280;22678;52.052;4.242;2022-12-07T07:05:39;101857.59;;;5.03;89.31
36692;BME280;22678;52.052;4.242;2022-12-07T07:08:04;101872.66;;;5.12;89.20
36692;BME280;22678;52.052;4.242;2022-12-07T07:10:30;101873.28;;;5.04;89.19
36692;BME280;22678;52.052;4.242;2022-12-07T07:12:55;101874.03;;;5.00;88.85
36692;BME280;22678;52.052;4.242;2022-12-07T07:15:20;101862.69;;;4.98;89.08
36692;BME280;22678;52.052;4.242;2022-12-07T07:17:46;101862.78;;;5.01;89.09
36692;BME280;22678;52.052;4.242;2022-12-07T07:20:11;101882.97;;;5.08;89.11
36692;BME280;22678;52.052;4.242;2022-12-07T07:22:37;101882.25;;;5.13;89.32
36692;BME280;22678;52.052;4.242;2022-12-07T07:25:02;101877.13;;;5.16;89.29
36692;BME280;22678;52.052;4.242;2022-12-07T07:27:28;101872.66;;;5.12;89.44
36692;BME280;22678;52.052;4.242;2022-12-07T07:29:54;101846.16;;;4.98;89.60
36692;BME280;22678;52.052;4.242;2022-12-07T07:32:19;101876.47;;;5.23;89.27
36692;BME280;22678;52.052;4.242;2022-12-07T07:34:46;101884.25;;;5.21;89.70
36692;BME280;22678;52.052;4.242;2022-12-07T07:37:11;101864.91;;;5.15;90.04
36692;BME280;22678;52.052;4.242;2022-12-07T07:39:37;101861.28;;;5.09;89.86
36692;BME280;22678;52.052;4.242;2022-12-07T07:42:03;101884.94;;;5.16;89.87
36692;BME280;22678;52.052;4.242;2022-12-07T07:44:28;101885.78;;;5.15;90.03
36692;BME280;22678;52.052;4.242;2022-12-07T07:46:54;101883.94;;;5.12;90.30
36692;BME280;22678;52.052;4.242;2022-12-07T07:49:19;101863.69;;;5.03;90.63
36692;BME280;22678;52.052;4.242;2022-12-07T07:51:44;101877.69;;;5.05;90.62
36692;BME280;22678;52.052;4.242;2022-12-07T07:54:10;101878.50;;;5.04;90.73
36692;BME280;22678;52.052;4.242;2022-12-07T07:56:35;101880.16;;;5.01;90.58
36692;BME280;22678;52.052;4.242;2022-12-07T07:59:00;101868.91;;;5.03;90.89
36692;BME280;22678;52.052;4.242;2022-12-07T08:01:25;101889.88;;;5.06;90.80
36692;BME280;22678;52.052;4.242;2022-12-07T08:03:51;101880.19;;;5.02;91.09
36692;BME280;22678;52.052;4.242;2022-12-07T08:06:16;101860.56;;;4.86;90.74
36692;BME280;22678;52.052;4.242;2022-12-07T08:08:41;101892.22;;;4.99;90.79
36692;BME280;22678;52.052;4.242;2022-12-07T08:11:08;101870.94;;;4.85;90.92
36692;BME280;22678;52.052;4.242;2022-12-07T08:13:34;101899.25;;;5.01;90.83
36692;BME280;22678;52.052;4.242;2022-12-07T08:16:07;101900.13;;;5.02;90.93
36692;BME280;22678;52.052;4.242;2022-12-07T08:18:37;101893.19;;;5.01;91.07
36692;BME280;22678;52.052;4.242;2022-12-07T08:21:04;101909.06;;;5.08;91.17
36692;BME280;22678;52.052;4.242;2022-12-07T08:23:30;101882.69;;;4.99;90.71
36692;BME280;22678;52.052;4.242;2022-12-07T08:26:00;101901.22;;;5.08;90.97
36692;BME280;22678;52.052;4.242;2022-12-07T08:28:25;101887.31;;;5.08;90.95
36692;BME280;22678;52.052;4.242;2022-12-07T08:30:50;101885.50;;;5.05;91.00
36692;BME280;22678;52.052;4.242;2022-12-07T08:33:15;101875.91;;;5.04;90.99
36692;BME280;22678;52.052;4.242;2022-12-07T08:35:41;101873.34;;;5.06;91.17
36692;BME280;22678;52.052;4.242;2022-12-07T08:38:06;101852.88;;;4.91;90.55
36692;BME280;22678;52.052;4.242;2022-12-07T08:40:31;101870.59;;;5.01;90.88
36692;BME280;22678;52.052;4.242;2022-12-07T08:42:57;101893.41;;;5.08;91.12
36692;BME280;22678;52.052;4.242;2022-12-07T08:45:22;101891.63;;;5.07;90.93
36692;BME280;22678;52.052;4.242;2022-12-07T08:47:52;101896.94;;;5.11;91.11
36692;BME280;22678;52.052;4.242;2022-12-07T08:50:19;101907.47;;;5.14;91.23
36692;BME280;22678;52.052;4.242;2022-12-07T08:52:48;101886.47;;;5.09;91.26
36692;BME280;22678;52.052;4.242;2022-12-07T08:55:14;101895.38;;;5.16;91.14
36692;BME280;22678;52.052;4.242;2022-12-07T08:57:40;101906.13;;;5.26;91.58
36692;BME280;22678;52.052;4.242;2022-12-07T09:00:06;101894.88;;;5.28;91.38
36692;BME280;22678;52.052;4.242;2022-12-07T09:02:32;101892.25;;;5.28;91.54
36692;BME280;22678;52.052;4.242;2022-12-07T09:04:57;101883.66;;;5.30;91.46
36692;BME280;22678;52.052;4.242;2022-12-07T09:07:23;101881.09;;;5.32;91.45
36692;BME280;22678;52.052;4.242;2022-12-07T09:09:49;101876.66;;;5.29;91.51
36692;BME280;22678;52.052;4.242;2022-12-07T09:12:14;101850.31;;;5.20;91.48
36692;BME280;22678;52.052;4.242;2022-12-07T09:14:39;101881.22;;;5.36;91.74
36692;BME280;22678;52.052;4.242;2022-12-07T09:17:09;101870.69;;;5.33;91.65
36692;BME280;22678;52.052;4.242;2022-12-07T09:19:34;101879.63;;;5.41;91.53
36692;BME280;22678;52.052;4.242;2022-12-07T09:22:00;101880.53;;;5.42;91.75
36692;BME280;22678;52.052;4.242;2022-12-07T09:24:26;101873.81;;;5.52;91.69
36692;BME280;22678;52.052;4.242;2022-12-07T09:26:51;101881.25;;;5.68;91.55
36692;BME280;22678;52.052;4.242;2022-12-07T09:29:16;101886.22;;;5.89;91.48
36692;BME280;22678;52.052;4.242;2022-12-07T09:31:42;101889.72;;;6.22;90.75
36692;BME280;22678;52.052;4.242;2022-12-07T09:34:07;101879.94;;;6.46;90.15
36692;BME280;22678;52.052;4.242;2022-12-07T09:36:32;101886.56;;;6.69;88.95
36692;BME280;22678;52.052;4.242;2022-12-07T09:38:58;101872.50;;;6.63;88.94
36692;BME280;22678;52.052;4.242;2022-12-07T09:41:24;101863.56;;;6.54;88.72
36692;BME280;22678;52.052;4.242;2022-12-07T09:43:52;101878.44;;;6.58;88.72
36692;BME280;22678;52.052;4.242;2022-12-07T09:46:19;101875.00;;;6.59;88.56
36692;BME280;22678;52.052;4.242;2022-12-07T09:48:47;101873.22;;;6.58;88.57
36692;BME280;22678;52.052;4.242;2022-12-07T09:51:18;101869.75;;;6.59;88.11
36692;BME280;22678;52.052;4.242;2022-12-07T09:53:44;101876.25;;;6.75;88.52
36692;BME280;22678;52.052;4.242;2022-12-07T09:56:14;101876.28;;;7.13;87.69
36692;BME280;22678;52.052;4.242;2022-12-07T09:58:40;101873.75;;;7.59;86.17
36692;BME280;22678;52.052;4.242;2022-12-07T10:03:39;101880.50;;;8.39;82.74
36692;BME280;22678;52.052;4.242;2022-12-07T10:06:06;101870.94;;;8.41;81.08
36692;BME280;22678;52.052;4.242;2022-12-07T10:08:32;101882.72;;;8.14;80.44
36692;BME280;22678;52.052;4.242;2022-12-07T10:10:58;101868.13;;;7.83;80.87
36692;BME280;22678;52.052;4.242;2022-12-07T10:13:44;101880.91;;;7.66;81.41
36692;BME280;22678;52.052;4.242;2022-12-07T10:16:39;101877.84;;;7.46;82.05
36692;BME280;22678;52.052;4.242;2022-12-07T10:19:20;101878.72;;;7.46;82.23
36692;BME280;22678;52.052;4.242;2022-12-07T10:24:33;101862.59;;;7.25;82.32
36692;BME280;22678;52.052;4.242;2022-12-07T10:26:59;101858.84;;;7.13;82.33
36692;BME280;22678;52.052;4.242;2022-12-07T10:29:32;101848.19;;;7.04;82.85
36692;BME280;22678;52.052;4.242;2022-12-07T10:34:38;101857.66;;;7.00;82.79
36692;BME280;22678;52.052;4.242;2022-12-07T10:39:45;101842.81;;;6.98;83.04
36692;BME280;22678;52.052;4.242;2022-12-07T10:42:25;101848.94;;;7.00;83.29
36692;BME280;22678;52.052;4.242;2022-12-07T10:45:18;101844.63;;;7.02;83.34
36692;BME280;22678;52.052;4.242;2022-12-07T10:48:10;101851.69;;;7.06;83.41
36692;BME280;22678;52.052;4.242;2022-12-07T10:53:27;101837.28;;;7.25;83.29
36692;BME280;22678;52.052;4.242;2022-12-07T11:09:54;101835.16;;;7.48;81.75
36692;BME280;22678;52.052;4.242;2022-12-07T11:18:24;101844.50;;;6.96;81.54
36692;BME280;22678;52.052;4.242;2022-12-07T11:21:03;101844.09;;;6.77;82.22
36692;BME280;22678;52.052;4.242;2022-12-07T11:29:05;101829.50;;;6.52;83.50
36692;BME280;22678;52.052;4.242;2022-12-07T11:31:41;101822.47;;;6.48;83.90
36692;BME280;22678;52.052;4.242;2022-12-07T11:37:12;101813.66;;;6.44;84.79
36692;BME280;22678;52.052;4.242;2022-12-07T11:39:46;101797.06;;;6.42;84.89
36692;BME280;22678;52.052;4.242;2022-12-07T11:42:19;101807.78;;;6.53;85.33
36692;BME280;22678;52.052;4.242;2022-12-07T11:44:56;101791.50;;;6.65;85.56
36692;BME280;22678;52.052;4.242;2022-12-07T11:47:45;101796.78;;;6.68;85.62
36692;BME280;22678;52.052;4.242;2022-12-07T11:52:58;101792.00;;;6.87;86.19
36692;BME280;22678;52.052;4.242;2022-12-07T11:56:10;101784.31;;;6.94;85.91
36692;BME280;22678;52.052;4.242;2022-12-07T12:01:07;101769.91;;;7.13;86.04
36692;BME280;22678;52.052;4.242;2022-12-07T12:03:40;101783.56;;;7.43;86.34
36692;BME280;22678;52.052;4.242;2022-12-07T12:06:07;101765.41;;;7.50;86.24
36692;BME280;22678;52.052;4.242;2022-12-07T12:08:38;101762.34;;;7.73;86.04
36692;BME280;22678;52.052;4.242;2022-12-07T12:19:55;101773.69;;;7.74;84.58
36692;BME280;22678;52.052;4.242;2022-12-07T12:22:32;101770.22;;;7.75;84.22
36692;BME280;22678;52.052;4.242;2022-12-07T12:24:59;101761.72;;;7.86;84.20
36692;BME280;22678;52.052;4.242;2022-12-07T12:27:27;101767.09;;;7.96;84.09
36692;BME280;22678;52.052;4.242;2022-12-07T12:29:58;101766.50;;;8.12;83.61
36692;BME280;22678;52.052;4.242;2022-12-07T12:32:44;101761.53;;;8.28;83.36
36692;BME280;22678;52.052;4.242;2022-12-07T12:40:54;101746.25;;;8.02;82.04
36692;BME280;22678;52.052;4.242;2022-12-07T12:43:50;101764.31;;;7.86;81.81
36692;BME280;22678;52.052;4.242;2022-12-07T12:51:53;101757.34;;;7.40;81.61
36692;BME280;22678;52.052;4.242;2022-12-07T12:54:28;101746.56;;;7.24;81.21
36692;BME280;22678;52.052;4.242;2022-12-07T12:57:24;101759.50;;;7.16;81.67
36692;BME280;22678;52.052;4.242;2022-12-07T13:02:28;101725.97;;;6.97;82.10
36692;BME280;22678;52.052;4.242;2022-12-07T13:10:40;101715.88;;;7.15;82.63
36692;BME280;22678;52.052;4.242;2022-12-07T13:15:41;101716.88;;;7.22;82.63
36692;BME280;22678;52.052;4.242;2022-12-07T13:23:24;101698.31;;;7.08;82.94
36692;BME280;22678;52.052;4.242;2022-12-07T13:28:27;101681.50;;;6.97;82.81
36692;BME280;22678;52.052;4.242;2022-12-07T13:31:09;101696.47;;;7.04;82.91
36692;BME280;22678;52.052;4.242;2022-12-07T13:33:36;101687.81;;;7.07;82.94
36692;BME280;22678;52.052;4.242;2022-12-07T13:36:02;101689.69;;;7.14;82.84
36692;BME280;22678;52.052;4.242;2022-12-07T13:38:33;101685.44;;;7.19;82.90
36692;BME280;22678;52.052;4.242;2022-12-07T13:41:14;101687.31;;;7.26;82.83
36692;BME280;22678;52.052;4.242;2022-12-07T13:43:44;101686.50;;;7.29;82.91
36692;BME280;22678;52.052;4.242;2022-12-07T13:46:11;101675.19;;;7.31;82.74
36692;BME280;22678;52.052;4.242;2022-12-07T13:48:45;101678.69;;;7.30;81.98
36692;BME280;22678;52.052;4.242;2022-12-07T13:51:18;101677.63;;;7.21;81.96
36692;BME280;22678;52.052;4.242;2022-12-07T13:54:30;101692.41;;;7.18;82.08
36692;BME280;22678;52.052;4.242;2022-12-07T13:56:37;101686.13;;;7.10;82.23
36692;BME280;22678;52.052;4.242;2022-12-07T13:59:09;101670.22;;;6.98;82.51
36692;BME280;22678;52.052;4.242;2022-12-07T14:01:36;101657.72;;;6.84;82.56
36692;BME280;22678;52.052;4.242;2022-12-07T14:06:52;101661.31;;;6.90;83.09
36692;BME280;22678;52.052;4.242;2022-12-07T14:09:22;101669.34;;;6.99;83.24
36692;BME280;22678;52.052;4.242;2022-12-07T14:11:49;101661.50;;;6.99;83.53
36692;BME280;22678;52.052;4.242;2022-12-07T14:14:21;101656.31;;;7.02;83.41
36692;BME280;22678;52.052;4.242;2022-12-07T14:17:23;101648.41;;;6.99;81.60
36692;BME280;22678;52.052;4.242;2022-12-07T14:19:58;101643.13;;;6.96;81.65
36692;BME280;22678;52.052;4.242;2022-12-07T14:22:37;101654.28;;;6.87;81.88
36692;BME280;22678;52.052;4.242;2022-12-07T14:27:59;101652.38;;;6.78;81.58
36692;BME280;22678;52.052;4.242;2022-12-07T14:30:30;101654.03;;;6.73;81.37
36692;BME280;22678;52.052;4.242;2022-12-07T14:33:01;101653.97;;;6.70;81.20
36692;BME280;22678;52.052;4.242;2022-12-07T14:35:27;101639.91;;;6.65;81.43
36692;BME280;22678;52.052;4.242;2022-12-07T14:37:53;101638.97;;;6.61;81.52
36692;BME280;22678;52.052;4.242;2022-12-07T14:40:24;101637.34;;;6.68;81.79
36692;BME280;22678;52.052;4.242;2022-12-07T14:42:51;101627.72;;;6.65;81.78
36692;BME280;22678;52.052;4.242;2022-12-07T14:45:20;101619.78;;;6.61;81.96
36692;BME280;22678;52.052;4.242;2022-12-07T14:47:46;101636.50;;;6.69;82.09
36692;BME280;22678;52.052;4.242;2022-12-07T14:50:17;101620.72;;;6.63;82.07
36692;BME280;22678;52.052;4.242;2022-12-07T14:52:47;101629.38;;;6.62;82.05
36692;BME280;22678;52.052;4.242;2022-12-07T14:55:19;101614.44;;;6.56;81.85
36692;BME280;22678;52.052;4.242;2022-12-07T14:57:45;101626.75;;;6.60;81.84
36692;BME280;22678;52.052;4.242;2022-12-07T15:00:14;101633.69;;;6.58;81.86
36692;BME280;22678;52.052;4.242;2022-12-07T15:02:40;101615.19;;;6.51;81.81
36692;BME280;22678;52.052;4.242;2022-12-07T15:05:05;101624.88;;;6.55;81.80
36692;BME280;22678;52.052;4.242;2022-12-07T15:07:30;101616.91;;;6.48;81.84
36692;BME280;22678;52.052;4.242;2022-12-07T15:09:56;101623.97;;;6.53;82.21
36692;BME280;22678;52.052;4.242;2022-12-07T15:12:21;101615.19;;;6.51;81.95
36692;BME280;22678;52.052;4.242;2022-12-07T15:14:46;101604.63;;;6.44;81.66